createdAt,value
2018-12-04T00:00:28.982Z,45
2018-12-04T00:02:55.892Z,42
2018-12-04T00:05:22.829Z,42
2018-12-04T00:07:49.760Z,45
2018-12-04T00:10:16.685Z,42
2018-12-04T00:12:43.603Z,43
2018-12-04T00:15:10.523Z,41
2018-12-04T00:17:37.443Z,42
2018-12-04T00:20:04.377Z,42
2018-12-04T00:22:31.297Z,41
2018-12-04T00:24:58.223Z,41
2018-12-04T00:27:25.199Z,40
2018-12-04T00:29:52.116Z,40
2018-12-04T00:32:19.036Z,41
2018-12-04T00:34:45.954Z,41
2018-12-04T00:37:12.877Z,40
2018-12-04T00:39:39.788Z,42
2018-12-04T00:42:06.704Z,40
2018-12-04T00:44:33.615Z,39
2018-12-04T00:47:00.527Z,40
2018-12-04T00:49:27.456Z,40
2018-12-04T00:51:54.365Z,40
2018-12-04T00:54:21.284Z,39
2018-12-04T00:56:48.207Z,39
2018-12-04T00:59:15.113Z,42
2018-12-04T01:01:42.028Z,38
2018-12-04T01:04:08.944Z,38
2018-12-04T01:06:35.844Z,39
2018-12-04T01:09:02.765Z,39
2018-12-04T01:11:29.660Z,39
2018-12-04T01:13:56.577Z,37
2018-12-04T01:16:23.497Z,38
2018-12-04T01:18:50.400Z,38
2018-12-04T01:21:17.323Z,37
2018-12-04T01:23:44.224Z,38
2018-12-04T01:26:11.128Z,37
2018-12-04T01:28:38.045Z,37
2018-12-04T01:31:04.963Z,37
2018-12-04T01:33:31.883Z,37
2018-12-04T01:35:58.810Z,37
2018-12-04T01:38:25.718Z,39
2018-12-04T01:40:52.634Z,37
2018-12-04T01:43:19.541Z,36
2018-12-04T01:45:46.466Z,36
2018-12-04T01:48:13.395Z,39
2018-12-04T01:50:40.299Z,37
2018-12-04T01:53:07.222Z,36
2018-12-04T01:55:34.139Z,35
2018-12-04T01:58:01.050Z,37
2018-12-04T02:00:27.963Z,37
2018-12-04T02:02:54.880Z,36
2018-12-04T02:05:21.781Z,35
2018-12-04T02:07:48.698Z,35
2018-12-04T02:10:15.606Z,34
2018-12-04T02:12:42.526Z,35
2018-12-04T02:15:09.445Z,34
2018-12-04T02:17:36.356Z,35
2018-12-04T02:20:03.286Z,34
2018-12-04T02:22:30.186Z,34
2018-12-04T02:24:57.109Z,34
2018-12-04T02:27:24.031Z,35
2018-12-04T02:29:50.932Z,33
2018-12-04T02:32:17.861Z,34
2018-12-04T02:34:44.776Z,34
2018-12-04T02:37:11.681Z,33
2018-12-04T02:39:38.604Z,33
2018-12-04T02:42:05.523Z,34
2018-12-04T02:44:32.421Z,33
2018-12-04T02:46:59.348Z,33
2018-12-04T02:49:26.255Z,33
2018-12-04T02:51:53.167Z,32
2018-12-04T02:54:20.088Z,33
2018-12-04T02:56:46.996Z,32
2018-12-04T02:59:13.953Z,33
2018-12-04T03:01:40.852Z,32
2018-12-04T03:04:07.764Z,32
2018-12-04T03:06:34.677Z,33
2018-12-04T03:09:01.596Z,32
2018-12-04T03:11:28.502Z,32
2018-12-04T03:13:55.420Z,33
2018-12-04T03:16:22.342Z,35
2018-12-04T03:18:49.256Z,32
2018-12-04T03:21:16.236Z,32
2018-12-04T03:23:43.154Z,31
2018-12-04T03:26:10.059Z,31
2018-12-04T03:28:36.979Z,31
2018-12-04T03:31:03.883Z,31
2018-12-04T03:33:30.801Z,31
2018-12-04T03:35:57.726Z,31
2018-12-04T03:38:24.636Z,31
2018-12-04T03:40:51.560Z,33
2018-12-04T03:43:18.490Z,33
2018-12-04T03:45:45.396Z,34
2018-12-04T03:48:12.318Z,31
2018-12-04T03:50:39.233Z,31
2018-12-04T03:53:06.140Z,31
2018-12-04T03:55:34.408Z,30
2018-12-04T03:57:59.975Z,29
2018-12-04T04:00:26.903Z,29
2018-12-04T04:02:53.825Z,30
2018-12-04T04:05:20.740Z,31
2018-12-04T04:07:47.656Z,28
2018-12-04T04:10:14.563Z,29
2018-12-04T04:12:41.474Z,30
2018-12-04T04:15:08.400Z,30
2018-12-04T04:17:35.303Z,29
2018-12-04T04:20:02.271Z,29
2018-12-04T04:22:29.192Z,29
2018-12-04T04:24:56.101Z,28
2018-12-04T04:27:23.029Z,29
2018-12-04T04:29:49.932Z,31
2018-12-04T04:32:16.852Z,29
2018-12-04T04:34:43.775Z,29
2018-12-04T04:37:10.671Z,29
2018-12-04T04:39:37.593Z,29
2018-12-04T04:42:04.556Z,28
2018-12-04T04:44:31.470Z,28
2018-12-04T04:46:58.388Z,28
2018-12-04T04:49:25.296Z,28
2018-12-04T04:51:52.238Z,27
2018-12-04T04:54:19.154Z,28
2018-12-04T04:56:46.058Z,28
2018-12-04T04:59:13.018Z,28
2018-12-04T05:01:39.941Z,28
2018-12-04T05:04:06.848Z,27
2018-12-04T05:06:33.774Z,30
2018-12-04T05:09:00.675Z,29
2018-12-04T05:11:27.582Z,27
2018-12-04T05:13:54.502Z,27
2018-12-04T05:16:21.405Z,28
2018-12-04T05:18:48.337Z,28
2018-12-04T05:21:15.253Z,30
2018-12-04T05:23:42.158Z,28
2018-12-04T05:26:09.083Z,26
2018-12-04T05:28:35.990Z,27
2018-12-04T05:31:03.444Z,28
2018-12-04T05:33:30.364Z,26
2018-12-04T05:35:57.301Z,28
2018-12-04T05:38:24.221Z,28
2018-12-04T05:40:51.136Z,27
2018-12-04T05:43:18.047Z,27
2018-12-04T05:45:44.987Z,27
2018-12-04T05:48:11.899Z,27
2018-12-04T05:50:38.823Z,26
2018-12-04T05:53:05.751Z,27
2018-12-04T05:55:32.667Z,31
2018-12-04T05:57:59.602Z,26
2018-12-04T06:00:26.546Z,27
2018-12-04T06:02:53.506Z,26
2018-12-04T06:05:20.433Z,28
2018-12-04T06:07:47.347Z,27
2018-12-04T06:10:14.261Z,26
2018-12-04T06:12:41.197Z,28
2018-12-04T06:15:08.112Z,29
2018-12-04T06:17:35.080Z,26
2018-12-04T06:20:02.005Z,28
2018-12-04T06:22:28.912Z,29
2018-12-04T06:24:55.848Z,29
2018-12-04T06:27:22.766Z,27
2018-12-04T06:29:49.689Z,28
